Time;durP1;ratioP1;P1;durP2;ratioP2;P2;SDS_P1;SDS_P2;PMS_P1;PMS_P2;Temp;Humidity;BMP_temperature;BMP_pressure;BME280_temperature;BME280_humidity;BME280_pressure;Samples;Min_cycle;Max_cycle;Signal;HPM_P1;HPM_P2
2023/05/07 00:03:01;;;;;;;31.58;19.42;;;;;;;11.36;100.00;101005.25;6239159;28;20042;-88
2023/05/07 00:06:03;;;;;;;29.73;17.55;;;;;;;11.29;100.00;100998.88;6260744;28;20490;-88
2023/05/07 00:09:05;;;;;;;28.58;16.95;;;;;;;11.20;100.00;100999.56;6240891;28;20396;-88
2023/05/07 00:12:07;;;;;;;25.42;16.63;;;;;;;11.24;100.00;101005.34;6258552;28;20507;-88
2023/05/07 00:15:10;;;;;;;26.50;16.52;;;;;;;11.24;100.00;101008.75;6260842;28;20120;-88
2023/05/07 00:18:12;;;;;;;27.25;17.27;;;;;;;11.26;100.00;101004.31;6260161;28;20041;-88
2023/05/07 00:21:14;;;;;;;27.92;17.42;;;;;;;11.23;100.00;101006.28;6250034;28;20132;-87
2023/05/07 00:24:17;;;;;;;29.58;17.70;;;;;;;11.26;100.00;100998.28;6262142;28;20052;-88
2023/05/07 00:27:18;;;;;;;26.80;17.40;;;;;;;11.21;100.00;101001.22;6259814;28;20512;-87
2023/05/07 00:30:20;;;;;;;28.77;18.63;;;;;;;11.18;100.00;100993.69;6262989;28;20055;-87
2023/05/07 00:33:22;;;;;;;29.17;17.63;;;;;;;11.15;100.00;100989.53;6263416;28;20052;-88
2023/05/07 00:36:25;;;;;;;29.17;17.83;;;;;;;11.17;100.00;100992.00;6261185;28;20048;-88
2023/05/07 00:39:27;;;;;;;29.13;17.20;;;;;;;11.15;100.00;100973.16;6258556;28;20067;-87
2023/05/07 00:42:29;;;;;;;30.15;17.48;;;;;;;11.12;100.00;100976.81;6259614;28;20727;-88
2023/05/07 00:45:30;;;;;;;30.55;17.35;;;;;;;11.12;100.00;100981.16;6258641;28;20146;-88
2023/05/07 00:48:33;;;;;;;29.80;17.55;;;;;;;11.12;100.00;100987.16;6251167;28;20044;-87
2023/05/07 00:51:35;;;;;;;29.38;17.85;;;;;;;11.09;100.00;100986.59;6256884;28;20080;-87
2023/05/07 00:54:37;;;;;;;29.08;17.80;;;;;;;11.08;100.00;100978.00;6240021;28;20043;-88
2023/05/07 00:57:40;;;;;;;34.42;18.42;;;;;;;11.12;100.00;100988.94;6248344;28;20415;-88
2023/05/07 01:00:42;;;;;;;32.15;18.92;;;;;;;11.13;100.00;100982.81;6255014;28;20045;-87
2023/05/07 01:03:44;;;;;;;34.42;19.05;;;;;;;11.11;100.00;100987.31;6254800;28;20138;-87
2023/05/07 01:06:47;;;;;;;35.47;19.33;;;;;;;11.11;100.00;100990.72;6260379;28;20506;-88
2023/05/07 01:09:49;;;;;;;34.75;19.67;;;;;;;11.08;100.00;100975.41;6260931;28;20053;-87
2023/05/07 01:12:53;;;;;;;33.58;19.45;;;;;;;11.06;100.00;100979.88;6259586;28;20364;-87
2023/05/07 01:15:56;;;;;;;33.63;20.42;;;;;;;11.07;100.00;100984.09;6259996;28;20052;-87
2023/05/07 01:18:57;;;;;;;36.40;20.27;;;;;;;11.00;100.00;100993.25;6258831;28;20127;-87
2023/05/07 01:22:14;;;;;;;32.90;19.13;;;;;;;10.99;100.00;100999.38;6261123;28;20041;-87
2023/05/07 01:25:23;;;;;;;31.65;18.38;;;;;;;10.99;100.00;100992.44;6250498;28;20135;-88
2023/05/07 01:28:28;;;;;;;35.20;19.52;;;;;;;10.92;100.00;100995.59;6254648;28;20068;-88
2023/05/07 01:31:34;;;;;;;34.28;18.08;;;;;;;10.90;100.00;100987.91;6257213;28;20041;-88
2023/05/07 01:34:37;;;;;;;35.15;19.58;;;;;;;10.96;100.00;100991.84;6255839;28;20045;-88
2023/05/07 01:37:40;;;;;;;34.92;18.85;;;;;;;10.96;100.00;100995.25;6252775;28;20396;-88
2023/05/07 01:40:43;;;;;;;35.38;19.08;;;;;;;10.89;100.00;100996.63;6263760;28;20049;-88
2023/05/07 01:43:47;;;;;;;29.63;17.83;;;;;;;10.81;100.00;100991.19;6258476;28;20088;-87
2023/05/07 01:46:49;;;;;;;30.27;17.20;;;;;;;10.81;100.00;100986.00;6241825;28;20486;-87
2023/05/07 01:49:51;;;;;;;30.90;17.83;;;;;;;10.89;100.00;100982.88;6260669;28;20118;-88
2023/05/07 01:52:53;;;;;;;31.13;18.40;;;;;;;10.84;100.00;100987.56;6258669;28;20127;-87
2023/05/07 01:55:54;;;;;;;31.95;17.90;;;;;;;10.81;100.00;100993.78;6246612;28;20134;-87
2023/05/07 01:58:58;;;;;;;29.52;16.95;;;;;;;10.81;100.00;100993.78;6259079;28;20049;-88
2023/05/07 02:02:00;;;;;;;29.60;16.70;;;;;;;10.77;100.00;100990.56;6264509;28;20127;-88
2023/05/07 02:05:02;;;;;;;27.55;16.15;;;;;;;10.76;100.00;100988.94;6262731;28;20044;-88
2023/05/07 02:08:05;;;;;;;27.85;15.50;;;;;;;10.73;100.00;100990.91;6262481;28;20197;-88
2023/05/07 02:11:07;;;;;;;23.95;13.75;;;;;;;10.75;100.00;100994.22;6253328;28;20080;-88
2023/05/07 02:14:10;;;;;;;23.80;13.82;;;;;;;10.75;100.00;100996.81;6260416;28;20043;-88
2023/05/07 02:17:12;;;;;;;23.02;13.98;;;;;;;10.71;100.00;101008.34;6251440;28;20052;-88
2023/05/07 02:20:14;;;;;;;23.77;13.52;;;;;;;10.73;100.00;101009.88;6249898;28;20049;-88
2023/05/07 02:23:16;;;;;;;21.77;13.25;;;;;;;10.71;100.00;101003.97;6261763;28;20045;-88
2023/05/07 02:26:18;;;;;;;18.75;11.98;;;;;;;10.72;100.00;101012.56;6264941;28;20053;-88
2023/05/07 02:29:20;;;;;;;18.13;11.50;;;;;;;10.72;100.00;101012.56;6264985;28;20091;-88
2023/05/07 02:32:23;;;;;;;18.23;10.65;;;;;;;10.73;100.00;101017.66;6263680;28;20091;-88
2023/05/07 02:35:25;;;;;;;17.20;9.98;;;;;;;10.72;100.00;101021.16;6262622;28;20219;-88
2023/05/07 02:38:27;;;;;;;18.05;10.63;;;;;;;10.77;100.00;101018.25;6263446;28;20048;-88
2023/05/07 02:41:29;;;;;;;15.15;10.25;;;;;;;10.72;100.00;101013.38;6259301;28;20609;-87
2023/05/07 02:44:31;;;;;;;16.92;10.45;;;;;;;10.73;100.00;101017.66;6262030;28;20572;-88
2023/05/07 02:47:33;;;;;;;14.40;9.23;;;;;;;10.73;100.00;101016.78;6261993;28;20562;-88
2023/05/07 02:50:36;;;;;;;16.92;9.95;;;;;;;10.71;100.00;101016.91;6260682;28;20190;-88
2023/05/07 02:53:38;;;;;;;15.18;9.25;;;;;;;10.71;100.00;101010.91;6261327;28;20047;-88
2023/05/07 02:56:40;;;;;;;14.88;9.95;;;;;;;10.67;100.00;101010.28;6256732;28;20530;-88
2023/05/07 02:59:42;;;;;;;15.48;9.27;;;;;;;10.64;100.00;101014.88;6257520;28;20482;-88
2023/05/07 03:02:46;;;;;;;15.73;9.73;;;;;;;10.60;100.00;101019.44;6262548;28;20123;-87
2023/05/07 03:05:48;;;;;;;16.38;9.70;;;;;;;10.64;100.00;101028.66;6261266;28;20045;-88
2023/05/07 03:08:50;;;;;;;17.60;10.20;;;;;;;10.63;100.00;101016.63;6263980;28;20037;-88
2023/05/07 03:11:52;;;;;;;15.70;10.13;;;;;;;10.65;100.00;101019.13;6245336;28;20644;-88
2023/05/07 03:14:54;;;;;;;17.00;10.52;;;;;;;10.62;100.00;101020.16;6252930;28;20506;-88
2023/05/07 03:17:56;;;;;;;17.45;10.85;;;;;;;10.64;100.00;101010.53;6262938;28;20135;-88
2023/05/07 03:20:58;;;;;;;22.65;13.50;;;;;;;10.62;100.00;101014.16;6250755;28;20052;-88
2023/05/07 03:24:00;;;;;;;20.67;12.60;;;;;;;10.57;100.00;101010.13;6252613;28;20048;-88
2023/05/07 03:27:02;;;;;;;22.27;12.63;;;;;;;10.53;100.00;100998.34;6254607;28;20044;-87
2023/05/07 03:30:04;;;;;;;21.73;13.13;;;;;;;10.56;100.00;100999.91;6258685;28;20049;-88
2023/05/07 03:33:06;;;;;;;17.50;11.77;;;;;;;10.53;100.00;100993.19;6261046;28;20400;-88
2023/05/07 03:36:09;;;;;;;21.05;12.75;;;;;;;10.52;100.00;100988.91;6259470;28;20046;-87
2023/05/07 03:39:11;;;;;;;22.63;13.63;;;;;;;10.47;100.00;100996.19;6253533;28;20723;-87
2023/05/07 03:42:15;;;;;;;20.88;13.70;;;;;;;10.54;100.00;100996.59;6262471;28;20502;-88
2023/05/07 03:45:18;;;;;;;22.08;12.90;;;;;;;10.52;100.00;100993.28;6262297;28;20307;-88
2023/05/07 03:48:26;;;;;;;20.58;12.73;;;;;;;10.57;100.00;100999.78;6241364;28;20057;-88
2023/05/07 03:51:30;;;;;;;19.65;11.75;;;;;;;10.56;100.00;100994.72;6262225;28;20041;-88
2023/05/07 03:54:32;;;;;;;20.13;11.68;;;;;;;10.55;100.00;101006.00;6255113;28;20987;-88
2023/05/07 03:57:35;;;;;;;19.38;12.48;;;;;;;10.56;100.00;101003.31;6253856;28;20041;-88
2023/05/07 04:00:39;;;;;;;19.10;12.13;;;;;;;10.60;100.00;101000.50;6261164;28;20861;-88
2023/05/07 04:03:57;;;;;;;21.05;11.60;;;;;;;10.55;100.00;100998.22;6260294;28;20514;-87
2023/05/07 04:07:00;;;;;;;17.48;11.93;;;;;;;10.49;100.00;101003.84;6276916;28;20491;-87
2023/05/07 04:10:03;;;;;;;18.60;10.77;;;;;;;10.47;100.00;101010.91;6260228;28;20132;-88
2023/05/07 04:13:05;;;;;;;17.90;11.30;;;;;;;10.46;100.00;101014.41;6259650;28;20056;-88
2023/05/07 04:16:07;;;;;;;18.63;10.63;;;;;;;10.48;100.00;101023.75;6260005;28;20049;-87
2023/05/07 04:19:11;;;;;;;15.88;9.63;;;;;;;10.48;100.00;101033.25;6249621;28;20143;-88
2023/05/07 04:22:14;;;;;;;16.15;10.50;;;;;;;10.52;100.00;101029.50;6249832;28;20041;-88
2023/05/07 04:25:16;;;;;;;15.77;9.73;;;;;;;10.52;100.00;101038.09;6242119;28;20049;-88
2023/05/07 04:28:20;;;;;;;16.27;10.30;;;;;;;10.47;100.00;101029.00;6247352;28;20048;-87
2023/05/07 04:31:22;;;;;;;18.55;11.55;;;;;;;10.46;100.00;101030.78;6260122;28;20127;-88
2023/05/07 04:34:28;;;;;;;16.48;11.18;;;;;;;10.50;100.00;101028.78;6263494;28;20053;-88
2023/05/07 04:37:32;;;;;;;17.27;10.85;;;;;;;10.51;100.00;101030.47;6237215;28;20049;-88
2023/05/07 04:40:36;;;;;;;18.70;11.35;;;;;;;10.54;100.00;101025.88;6259654;28;20041;-88
2023/05/07 04:43:38;;;;;;;21.70;13.45;;;;;;;10.56;100.00;101026.59;6260193;28;20507;-87
2023/05/07 04:46:42;;;;;;;22.48;12.43;;;;;;;10.56;100.00;101030.97;6259473;28;20216;-88
2023/05/07 04:49:44;;;;;;;18.13;11.25;;;;;;;10.60;100.00;101034.16;6243218;28;20037;-87
2023/05/07 04:52:50;;;;;;;19.50;11.57;;;;;;;10.59;100.00;101048.03;6247888;28;20048;-88
2023/05/07 04:55:59;;;;;;;19.13;12.65;;;;;;;10.63;100.00;101047.69;6260547;28;20051;-88
2023/05/07 04:59:07;;;;;;;18.70;12.60;;;;;;;10.59;100.00;101050.63;6257891;28;20063;-88
2023/05/07 05:02:10;;;;;;;24.77;12.75;;;;;;;10.64;100.00;101058.91;6261342;28;20036;-88
2023/05/07 05:05:13;;;;;;;23.73;13.77;;;;;;;10.65;100.00;101061.34;6258762;28;20037;-88
2023/05/07 05:08:15;;;;;;;18.85;12.23;;;;;;;10.67;100.00;101064.66;6266872;28;20074;-88
2023/05/07 05:11:17;;;;;;;20.75;13.30;;;;;;;10.70;100.00;101064.44;6257895;28;20056;-88
2023/05/07 05:14:20;;;;;;;18.77;11.95;;;;;;;10.73;100.00;101058.22;6240190;28;20053;-88
2023/05/07 05:17:22;;;;;;;20.33;12.88;;;;;;;10.81;100.00;101070.63;6242838;28;20557;-88
2023/05/07 05:20:24;;;;;;;17.45;12.15;;;;;;;10.82;100.00;101056.75;6256448;28;20037;-88
2023/05/07 05:23:27;;;;;;;17.65;11.93;;;;;;;10.86;100.00;101066.78;6259194;28;20045;-87
2023/05/07 05:26:29;;;;;;;19.77;12.73;;;;;;;10.87;100.00;101060.66;6260674;28;20048;-88
2023/05/07 05:29:32;;;;;;;18.90;11.80;;;;;;;10.83;100.00;101067.03;6261440;28;20118;-87
2023/05/07 05:32:34;;;;;;;17.08;12.32;;;;;;;10.91;100.00;101064.69;6261033;28;20048;-88
2023/05/07 05:35:36;;;;;;;19.08;10.68;;;;;;;10.92;100.00;101063.75;6263543;28;20045;-88
2023/05/07 05:38:41;;;;;;;15.48;9.95;;;;;;;11.05;100.00;101060.28;6279615;28;20080;-88
2023/05/07 05:41:47;;;;;;;16.42;10.07;;;;;;;11.07;100.00;101066.19;6266322;28;20049;-88
2023/05/07 05:44:50;;;;;;;16.30;10.25;;;;;;;11.12;100.00;101070.06;6272052;28;20064;-87
2023/05/07 05:47:52;;;;;;;14.98;9.43;;;;;;;11.16;100.00;101081.88;6262932;28;20424;-87
2023/05/07 05:50:55;;;;;;;15.63;9.60;;;;;;;11.14;100.00;101085.53;6261826;28;20055;-88
2023/05/07 05:53:56;;;;;;;14.70;9.50;;;;;;;11.12;100.00;101089.97;6264153;28;20056;-88
2023/05/07 05:56:59;;;;;;;13.98;9.07;;;;;;;11.09;100.00;101101.41;6265519;28;20048;-88
2023/05/07 06:00:02;;;;;;;13.75;8.77;;;;;;;11.07;100.00;101099.84;6263822;28;20041;-88
2023/05/07 06:03:07;;;;;;;13.60;9.07;;;;;;;11.04;100.00;101090.53;6263884;28;20048;-87
2023/05/07 06:06:11;;;;;;;13.65;8.98;;;;;;;11.04;100.00;101090.53;6257529;28;20045;-88
2023/05/07 06:09:12;;;;;;;14.43;9.65;;;;;;;11.14;100.00;101075.97;6263088;28;20553;-88
2023/05/07 06:12:17;;;;;;;14.55;9.75;;;;;;;11.20;100.00;101075.56;6260632;28;20049;-89
2023/05/07 06:15:22;;;;;;;13.30;9.02;;;;;;;11.28;100.00;101085.34;6262981;28;20748;-88
2023/05/07 06:18:24;;;;;;;12.45;8.38;;;;;;;11.38;100.00;101082.91;6263042;28;20377;-87
2023/05/07 06:21:26;;;;;;;12.02;8.45;;;;;;;11.46;100.00;101070.22;6261681;28;20048;-88
2023/05/07 06:24:29;;;;;;;12.73;8.32;;;;;;;11.56;100.00;101083.31;6261328;28;20055;-87
2023/05/07 06:27:31;;;;;;;10.80;8.23;;;;;;;11.66;100.00;101091.25;6254707;28;20130;-88
2023/05/07 06:30:33;;;;;;;10.30;7.63;;;;;;;11.75;100.00;101090.53;6242013;28;20359;-87
2023/05/07 06:33:35;;;;;;;12.15;8.40;;;;;;;11.90;100.00;101083.41;6262819;28;20056;-88
2023/05/07 06:36:37;;;;;;;10.93;7.78;;;;;;;12.10;100.00;101080.16;6262285;28;20613;-88
2023/05/07 06:40:03;;;;;;;10.55;8.32;;;;;;;12.21;100.00;101085.31;6261451;28;20056;-88
2023/05/07 06:43:07;;;;;;;10.60;7.47;;;;;;;12.30;100.00;101076.00;6255856;28;20065;-88
2023/05/07 06:46:17;;;;;;;10.68;7.80;;;;;;;12.33;100.00;101090.53;6259950;28;20156;-88
2023/05/07 06:49:20;;;;;;;10.40;7.80;;;;;;;12.40;100.00;101092.53;6250022;28;20080;-88
2023/05/07 06:52:23;;;;;;;10.55;7.55;;;;;;;12.52;100.00;101082.13;6256624;28;20499;-87
2023/05/07 06:55:27;;;;;;;11.00;7.55;;;;;;;12.61;100.00;101081.41;6253300;28;20053;-88
2023/05/07 06:58:29;;;;;;;9.85;7.35;;;;;;;12.68;100.00;101082.56;6253519;28;20406;-88
2023/05/07 07:01:33;;;;;;;9.75;7.60;;;;;;;12.77;100.00;101091.41;6254526;28;20057;-88
2023/05/07 07:04:37;;;;;;;9.73;7.55;;;;;;;12.80;100.00;101083.38;6260850;28;20056;-88
2023/05/07 07:07:43;;;;;;;10.05;7.47;;;;;;;12.89;100.00;101095.63;6262466;28;20055;-88
2023/05/07 07:10:45;;;;;;;8.95;7.05;;;;;;;12.91;100.00;101104.94;6261881;28;20429;-88
2023/05/07 07:13:48;;;;;;;10.55;7.03;;;;;;;12.87;100.00;101106.16;6261783;28;20052;-88
2023/05/07 07:16:50;;;;;;;10.85;6.72;;;;;;;12.99;100.00;101108.72;6261585;28;20864;-88
2023/05/07 07:19:54;;;;;;;9.68;7.07;;;;;;;13.18;100.00;101108.06;6263230;28;20044;-88
2023/05/07 07:22:56;;;;;;;10.30;7.40;;;;;;;13.39;100.00;101116.78;6262363;28;20038;-88
2023/05/07 07:25:58;;;;;;;10.05;7.60;;;;;;;13.49;100.00;101111.63;6260625;28;20080;-88
2023/05/07 07:29:01;;;;;;;10.73;7.28;;;;;;;13.39;100.00;101110.72;6245419;28;20063;-88
2023/05/07 07:32:04;;;;;;;10.00;7.85;;;;;;;13.41;100.00;101120.03;6236064;28;20525;-88
2023/05/07 07:35:07;;;;;;;10.20;8.43;;;;;;;13.48;100.00;101121.19;6257317;28;20045;-88
2023/05/07 07:38:10;;;;;;;10.05;8.20;;;;;;;13.57;100.00;101123.06;6242193;28;20499;-88
2023/05/07 07:41:15;;;;;;;10.88;8.70;;;;;;;13.74;100.00;101129.47;6255087;28;20045;-88
2023/05/07 07:44:18;;;;;;;10.85;9.00;;;;;;;13.93;100.00;101131.34;6265633;28;20149;-88
2023/05/07 07:47:25;;;;;;;11.57;8.95;;;;;;;14.10;100.00;101123.94;6265842;28;20049;-88
2023/05/07 07:50:27;;;;;;;12.23;10.15;;;;;;;14.24;100.00;101126.19;6240014;28;20037;-88
2023/05/07 07:53:47;;;;;;;11.82;9.30;;;;;;;14.44;100.00;101125.31;6268162;28;20052;-88
2023/05/07 07:56:49;;;;;;;12.45;9.10;;;;;;;14.71;100.00;101126.53;6260461;28;20054;-88
2023/05/07 07:59:52;;;;;;;11.75;9.63;;;;;;;14.90;100.00;101130.94;6256002;28;20045;-88
2023/05/07 08:02:55;;;;;;;12.45;9.88;;;;;;;14.95;100.00;101118.34;6261911;28;20118;-88
2023/05/07 08:06:02;;;;;;;11.00;9.82;;;;;;;14.98;100.00;101118.09;6258737;28;20044;-88
2023/05/07 08:09:06;;;;;;;13.25;9.82;;;;;;;15.08;100.00;101121.53;6259946;28;20044;-88
2023/05/07 08:12:08;;;;;;;12.00;10.23;;;;;;;15.26;100.00;101120.84;6261270;28;20656;-88
2023/05/07 08:15:13;;;;;;;11.75;9.93;;;;;;;15.35;100.00;101121.78;6259578;28;20498;-88
2023/05/07 08:18:17;;;;;;;12.50;10.23;;;;;;;15.32;100.00;101122.06;6260095;28;20053;-89
2023/05/07 08:21:20;;;;;;;14.27;10.18;;;;;;;15.34;100.00;101120.97;6277253;28;20380;-88
2023/05/07 08:24:22;;;;;;;11.30;9.60;;;;;;;15.20;100.00;101126.59;6259385;28;20116;-88
2023/05/07 08:27:24;;;;;;;12.77;10.02;;;;;;;15.08;100.00;101126.75;6253896;28;20056;-87
2023/05/07 08:30:26;;;;;;;12.88;11.05;;;;;;;14.94;100.00;101129.72;6261891;28;20049;-87
2023/05/07 08:33:34;;;;;;;13.32;11.13;;;;;;;14.83;100.00;101125.47;6242593;28;20164;-88
2023/05/07 08:36:36;;;;;;;14.25;10.52;;;;;;;14.75;100.00;101125.28;6253113;28;20167;-88
2023/05/07 08:39:39;;;;;;;14.35;11.13;;;;;;;14.77;100.00;101123.38;6251981;28;20135;-89
2023/05/07 08:42:50;;;;;;;13.32;11.77;;;;;;;14.76;100.00;101141.78;6257879;28;20147;-88
2023/05/07 08:45:54;;;;;;;13.73;11.13;;;;;;;14.58;100.00;101139.81;6250186;28;20037;-88
2023/05/07 08:49:01;;;;;;;13.43;11.77;;;;;;;14.54;100.00;101150.63;6255191;28;20091;-89
2023/05/07 08:52:03;;;;;;;14.82;11.65;;;;;;;14.35;100.00;101156.53;6234397;28;20110;-88
2023/05/07 08:55:07;;;;;;;13.48;11.30;;;;;;;14.29;100.00;101152.66;6246318;28;20124;-89
2023/05/07 08:58:13;;;;;;;13.07;11.07;;;;;;;14.32;100.00;101141.16;6256664;28;20163;-88
2023/05/07 09:01:16;;;;;;;13.23;11.55;;;;;;;14.23;100.00;101145.34;6248737;28;20384;-89
2023/05/07 09:04:22;;;;;;;13.02;11.23;;;;;;;14.27;100.00;101148.53;6258537;28;20474;-88
2023/05/07 09:07:26;;;;;;;13.50;12.10;;;;;;;14.36;100.00;101135.56;6262545;28;20073;-88
2023/05/07 09:10:29;;;;;;;15.23;12.23;;;;;;;14.49;100.00;101132.72;6254244;28;20099;-88
2023/05/07 09:13:32;;;;;;;14.73;12.40;;;;;;;14.44;100.00;101138.34;6259928;28;20114;-89
2023/05/07 09:16:38;;;;;;;14.40;11.98;;;;;;;14.43;100.00;101144.50;6260885;28;20574;-91
2023/05/07 09:19:47;;;;;;;13.88;11.80;;;;;;;14.51;100.00;101145.63;6246098;28;20052;-89
2023/05/07 09:22:51;;;;;;;14.27;11.82;;;;;;;14.54;100.00;101129.78;6249031;28;20048;-88
2023/05/07 09:26:01;;;;;;;12.57;11.27;;;;;;;14.62;100.00;101140.34;6242056;28;20052;-88
2023/05/07 09:29:07;;;;;;;12.80;11.07;;;;;;;14.71;100.00;101134.34;6236988;28;20057;-89
2023/05/07 09:32:10;;;;;;;12.20;9.98;;;;;;;14.71;100.00;101139.56;6252804;28;20049;-89
2023/05/07 09:35:29;;;;;;;12.20;9.80;;;;;;;14.80;100.00;101136.13;6242799;28;20094;-89
2023/05/07 09:38:37;;;;;;;13.60;10.25;;;;;;;14.93;100.00;101137.69;6252509;28;20534;-89
2023/05/07 09:41:54;;;;;;;11.85;10.00;;;;;;;15.15;100.00;101140.03;6258841;28;20052;-89
2023/05/07 09:45:05;;;;;;;10.63;8.65;;;;;;;15.33;100.00;101139.34;6249273;28;20048;-89
2023/05/07 09:48:14;;;;;;;11.60;9.63;;;;;;;15.43;100.00;101143.63;6258658;28;20132;-89
2023/05/07 09:51:50;;;;;;;12.57;9.10;;;;;;;15.49;100.00;101145.69;6257210;28;20045;-89
2023/05/07 09:54:58;;;;;;;13.13;9.80;;;;;;;15.71;100.00;101146.41;6262714;28;20388;-89
2023/05/07 09:58:06;;;;;;;12.27;9.43;;;;;;;15.81;100.00;101144.59;6256849;28;20168;-89
2023/05/07 10:01:11;;;;;;;10.70;9.60;;;;;;;16.02;100.00;101147.00;6250194;28;20045;-89
2023/05/07 10:04:19;;;;;;;11.77;10.13;;;;;;;16.23;100.00;101148.63;6255719;28;20375;-89
2023/05/07 10:07:22;;;;;;;11.15;9.82;;;;;;;16.33;100.00;101154.63;6258560;28;20067;-89
2023/05/07 10:10:29;;;;;;;13.60;9.65;;;;;;;16.31;100.00;101156.56;6242147;28;20585;-89
2023/05/07 10:13:37;;;;;;;12.77;9.55;;;;;;;16.33;100.00;101152.84;6254621;28;20049;-89
2023/05/07 10:16:43;;;;;;;10.70;9.50;;;;;;;16.40;100.00;101162.69;6247520;28;20037;-89
2023/05/07 10:19:52;;;;;;;11.32;9.85;;;;;;;16.46;100.00;101160.34;6261016;28;20052;-90
2023/05/07 10:22:57;;;;;;;11.82;10.00;;;;;;;16.46;100.00;101167.38;6259756;28;20040;-89
2023/05/07 10:26:09;;;;;;;12.15;10.18;;;;;;;16.61;100.00;101163.31;6254330;28;20413;-89
2023/05/07 10:29:18;;;;;;;13.68;11.50;;;;;;;16.68;100.00;101153.09;6256486;28;20048;-89
2023/05/07 10:32:40;;;;;;;10.82;9.73;;;;;;;16.97;100.00;101160.81;6248476;28;20041;-89
2023/05/07 10:35:49;;;;;;;12.73;10.02;;;;;;;17.26;100.00;101152.75;6274915;28;20055;-89
2023/05/07 10:38:52;;;;;;;10.90;9.43;;;;;;;17.51;100.00;101160.81;6262889;28;20048;-89
2023/05/07 10:41:55;;;;;;;11.85;10.20;;;;;;;17.70;100.00;101154.59;6263186;28;20649;-89
2023/05/07 10:44:58;;;;;;;12.52;10.70;;;;;;;17.69;100.00;101160.78;6255620;28;20075;-90
2023/05/07 10:48:14;;;;;;;10.93;9.80;;;;;;;17.41;100.00;101159.09;6251504;28;20530;-90
2023/05/07 10:51:27;;;;;;;11.52;10.27;;;;;;;17.47;100.00;101155.06;6257859;28;20406;-89
2023/05/07 10:54:38;;;;;;;12.93;9.68;;;;;;;17.46;100.00;101156.03;6251186;28;20056;-90
2023/05/07 10:57:45;;;;;;;10.02;9.02;;;;;;;17.41;100.00;101169.56;6233777;28;20045;-89
2023/05/07 11:01:01;;;;;;;11.52;9.05;;;;;;;17.32;100.00;101169.66;6248980;28;20718;-89
2023/05/07 11:04:16;;;;;;;10.23;9.23;;;;;;;17.20;100.00;101180.34;6245195;28;20064;-89
2023/05/07 11:07:36;;;;;;;10.90;9.70;;;;;;;16.96;100.00;101174.84;6243978;28;20382;-89
2023/05/07 11:10:56;;;;;;;10.52;9.38;;;;;;;16.87;100.00;101173.09;6249002;28;20049;-89
2023/05/07 11:14:04;;;;;;;11.00;9.82;;;;;;;16.78;100.00;101178.25;6242255;28;20060;-89
2023/05/07 11:17:16;;;;;;;10.32;9.23;;;;;;;16.74;100.00;101173.41;6257468;28;20422;-89
2023/05/07 11:20:57;;;;;;;10.07;8.68;;;;;;;16.79;100.00;101179.06;6244704;28;20052;-89
2023/05/07 11:24:17;;;;;;;10.98;8.98;;;;;;;16.65;100.00;101175.13;6252809;28;21001;-89
2023/05/07 11:27:27;;;;;;;9.95;8.50;;;;;;;16.54;100.00;101183.97;6237549;28;20072;-89
2023/05/07 11:30:31;;;;;;;9.15;8.25;;;;;;;16.47;100.00;101175.06;6240504;28;20037;-89
2023/05/07 11:33:44;;;;;;;10.93;9.70;;;;;;;16.49;100.00;101182.75;6248875;28;20045;-89
2023/05/07 11:36:50;;;;;;;9.60;8.50;;;;;;;16.46;100.00;101181.25;6245394;28;20272;-89
2023/05/07 11:40:10;;;;;;;9.93;8.85;;;;;;;16.54;100.00;101178.72;6262088;28;20049;-89
2023/05/07 11:43:12;;;;;;;10.27;9.13;;;;;;;16.90;100.00;101178.88;6258912;28;20056;-89
2023/05/07 11:46:15;;;;;;;9.75;8.55;;;;;;;17.12;100.00;101180.25;6257222;28;20041;-89
2023/05/07 11:49:18;;;;;;;11.98;8.75;;;;;;;17.38;100.00;101182.13;6244310;28;20061;-89
2023/05/07 11:52:22;;;;;;;9.02;8.13;;;;;;;17.41;100.00;101177.41;6258450;28;20045;-90
2023/05/07 11:55:25;;;;;;;11.43;8.70;;;;;;;17.43;100.00;101178.09;6256108;28;20041;-89
2023/05/07 11:58:28;;;;;;;9.65;7.60;;;;;;;17.70;100.00;101171.13;6259126;28;20225;-89
2023/05/07 12:01:31;;;;;;;8.90;7.25;;;;;;;18.11;100.00;101170.63;6263063;28;20029;-89
2023/05/07 12:04:33;;;;;;;8.52;7.53;;;;;;;18.36;100.00;101176.81;6228276;28;20099;-89
2023/05/07 12:07:35;;;;;;;8.68;7.55;;;;;;;18.72;100.00;101180.09;6252133;28;20518;-89
2023/05/07 12:10:41;;;;;;;10.15;8.48;;;;;;;18.80;100.00;101184.56;6257874;28;20047;-89
2023/05/07 12:13:43;;;;;;;14.15;7.85;;;;;;;18.87;100.00;101178.53;6239440;28;20171;-89
2023/05/07 12:16:46;;;;;;;8.65;7.75;;;;;;;19.12;100.00;101178.59;6257302;28;20040;-89
2023/05/07 12:19:48;;;;;;;9.93;7.45;;;;;;;19.25;100.00;101178.13;6258856;28;20059;-91
2023/05/07 12:22:52;;;;;;;8.68;7.78;;;;;;;19.35;100.00;101182.25;6256856;28;20109;-89
2023/05/07 12:25:54;;;;;;;8.13;7.32;;;;;;;19.17;100.00;101183.38;6256369;28;20037;-89
2023/05/07 12:28:59;;;;;;;7.50;6.70;;;;;;;19.14;100.00;101187.94;6262116;28;20044;-89
2023/05/07 12:32:01;;;;;;;8.20;6.63;;;;;;;19.13;100.00;101186.31;6256935;28;20097;-89
2023/05/07 12:35:06;;;;;;;7.80;7.00;;;;;;;19.18;100.00;101182.38;6248034;28;20070;-89
2023/05/07 12:38:14;;;;;;;6.93;6.30;;;;;;;19.22;100.00;101179.28;6256465;28;20450;-89
2023/05/07 12:41:18;;;;;;;7.80;7.05;;;;;;;19.27;100.00;101173.53;6238358;28;20052;-89
2023/05/07 12:44:23;;;;;;;6.55;5.78;;;;;;;19.10;100.00;101172.69;6257890;28;20535;-89
2023/05/07 12:47:25;;;;;;;6.82;5.85;;;;;;;18.88;100.00;101179.34;6248973;28;20074;-89
2023/05/07 12:50:32;;;;;;;7.90;6.20;;;;;;;19.01;100.00;101176.28;6260624;28;20045;-89
2023/05/07 12:53:41;;;;;;;8.90;6.28;;;;;;;19.22;100.00;101174.03;6251294;28;20060;-89
2023/05/07 12:56:44;;;;;;;7.25;5.78;;;;;;;19.40;100.00;101173.06;6249972;28;20487;-89
2023/05/07 12:59:46;;;;;;;6.80;6.10;;;;;;;19.26;100.00;101175.34;6256136;28;20049;-89
2023/05/07 13:02:48;;;;;;;6.70;6.00;;;;;;;19.48;100.00;101176.53;6255611;28;20411;-89
2023/05/07 13:05:51;;;;;;;6.60;6.00;;;;;;;19.70;100.00;101168.97;6257994;28;20033;-90
2023/05/07 13:08:53;;;;;;;7.32;6.22;;;;;;;19.68;100.00;101192.00;6254337;28;20052;-89
2023/05/07 13:11:55;;;;;;;7.10;6.43;;;;;;;19.68;100.00;101184.09;6252873;28;20045;-89
2023/05/07 13:14:58;;;;;;;8.30;7.13;;;;;;;19.74;100.00;101184.25;6248025;28;20469;-89
2023/05/07 13:18:00;;;;;;;8.00;7.30;;;;;;;19.77;100.00;101177.84;6257471;28;20064;-89
2023/05/07 13:21:03;;;;;;;8.77;7.70;;;;;;;19.85;100.00;101185.75;6252932;28;20076;-90
2023/05/07 13:24:05;;;;;;;8.02;7.25;;;;;;;19.71;100.00;101178.53;6263627;28;20067;-89
2023/05/07 13:27:07;;;;;;;10.65;7.78;;;;;;;19.57;100.00;101177.31;6253235;28;20083;-91
2023/05/07 13:30:11;;;;;;;9.48;8.40;;;;;;;19.67;100.00;101172.75;6257133;28;20147;-90
2023/05/07 13:33:13;;;;;;;9.68;8.68;;;;;;;19.44;100.00;101169.94;6254188;28;20124;-90
2023/05/07 13:36:16;;;;;;;9.38;8.32;;;;;;;19.41;100.00;101170.28;6266398;28;20044;-90
2023/05/07 13:39:19;;;;;;;10.15;9.07;;;;;;;19.15;100.00;101170.41;6256232;28;20048;-89
2023/05/07 13:42:21;;;;;;;10.35;9.32;;;;;;;19.34;100.00;101169.28;6256692;28;20055;-89
2023/05/07 13:45:25;;;;;;;10.02;8.82;;;;;;;19.62;100.00;101166.34;6263517;28;20052;-89
2023/05/07 13:48:29;;;;;;;9.85;8.80;;;;;;;19.85;100.00;101167.34;6255584;28;20049;-90
2023/05/07 13:51:31;;;;;;;9.27;8.38;;;;;;;20.13;100.00;101166.97;6267677;28;20040;-90
2023/05/07 13:54:33;;;;;;;9.35;8.45;;;;;;;20.28;100.00;101162.66;6262382;28;20120;-90
2023/05/07 13:57:36;;;;;;;10.07;9.07;;;;;;;20.55;100.00;101171.13;6261071;28;20072;-90